createdAt,value
2023-03-15T00:02:31.533Z,99161.31
2023-03-15T00:05:34.814Z,99162.88
2023-03-15T00:08:37.467Z,99170.66
2023-03-15T00:11:40.554Z,99178.66
2023-03-15T00:14:43.162Z,99171.75
2023-03-15T00:17:45.619Z,99162.50
2023-03-15T00:20:48.998Z,99182.50
2023-03-15T00:23:53.037Z,99184.00
2023-03-15T00:26:55.573Z,99185.31
2023-03-15T00:29:58.258Z,99201.16
2023-03-15T00:33:00.889Z,99195.59
2023-03-15T00:36:06.629Z,99187.41
2023-03-15T00:39:09.583Z,99204.00
2023-03-15T00:42:16.627Z,99193.84
2023-03-15T00:45:21.289Z,99199.94
2023-03-15T00:48:24.104Z,99200.50
2023-03-15T00:51:26.792Z,99183.34
2023-03-15T00:54:29.684Z,99187.63
2023-03-15T00:57:35.051Z,99186.97
2023-03-15T01:00:38.345Z,99161.31
2023-03-15T01:03:46.093Z,99157.47
2023-03-15T01:06:48.679Z,99170.22
2023-03-15T01:09:51.888Z,99165.59
2023-03-15T01:12:54.324Z,99139.66
2023-03-15T01:15:58.838Z,99163.56
2023-03-15T01:19:01.274Z,99169.44
2023-03-15T01:22:03.745Z,99174.28
2023-03-15T01:25:06.643Z,99171.47
2023-03-15T01:28:09.590Z,99183.41
2023-03-15T01:31:23.987Z,99167.38
2023-03-15T01:34:26.580Z,99171.34
2023-03-15T01:37:29.209Z,99164.78
2023-03-15T01:40:32.267Z,99164.25
2023-03-15T01:43:35.600Z,99156.56
2023-03-15T01:46:38.145Z,99177.53
2023-03-15T01:50:08.698Z,99161.97
2023-03-15T01:53:12.618Z,99173.59
2023-03-15T01:56:15.841Z,99176.97
2023-03-15T01:59:24.093Z,99169.41
2023-03-15T02:02:28.041Z,99179.00
2023-03-15T02:05:36.027Z,99177.06
2023-03-15T02:08:44.920Z,99152.00
2023-03-15T02:11:48.058Z,99160.50
2023-03-15T02:14:54.267Z,99159.78
2023-03-15T02:17:58.968Z,99160.00
2023-03-15T02:21:22.713Z,99172.22
2023-03-15T02:24:44.455Z,99184.16
2023-03-15T02:27:47.804Z,99170.38
2023-03-15T02:30:52.406Z,99186.38
2023-03-15T02:33:57.638Z,99188.38
2023-03-15T02:37:00.127Z,99189.19
2023-03-15T02:40:21.719Z,99176.84
2023-03-15T02:43:29.194Z,99180.25
2023-03-15T02:46:31.702Z,99200.59
2023-03-15T02:49:40.670Z,99198.31
2023-03-15T02:52:44.883Z,99196.69
2023-03-15T02:55:47.351Z,99203.25
2023-03-15T02:58:52.254Z,99201.22
2023-03-15T03:01:54.836Z,99194.59
2023-03-15T03:04:57.344Z,99195.75
2023-03-15T03:07:59.973Z,99201.94
2023-03-15T03:11:02.665Z,99180.03
2023-03-15T03:14:06.128Z,99197.19
2023-03-15T03:17:08.867Z,99199.78
2023-03-15T03:20:14.196Z,99216.25
2023-03-15T03:23:21.264Z,99200.47
2023-03-15T03:26:27.878Z,99212.44
2023-03-15T03:29:31.150Z,99200.00
2023-03-15T03:32:37.569Z,99194.81
2023-03-15T03:35:40.404Z,99197.75
2023-03-15T03:38:45.544Z,99181.16
2023-03-15T03:41:48.360Z,99191.34
2023-03-15T03:44:51.377Z,99183.19
2023-03-15T03:47:55.155Z,99185.38
2023-03-15T03:50:58.839Z,99183.66
2023-03-15T03:54:02.225Z,99181.19
2023-03-15T03:57:05.207Z,99170.34
2023-03-15T04:00:15.056Z,99179.25
2023-03-15T04:03:18.759Z,99172.56
2023-03-15T04:06:25.203Z,99177.69
2023-03-15T04:09:28.559Z,99151.59
2023-03-15T04:12:31.285Z,99158.97
2023-03-15T04:15:34.739Z,99172.41
2023-03-15T04:18:37.216Z,99163.34
2023-03-15T04:21:39.956Z,99168.88
2023-03-15T04:25:03.183Z,99173.28
2023-03-15T04:28:27.969Z,99157.09
2023-03-15T04:31:38.862Z,99185.84
2023-03-15T04:34:51.757Z,99173.91
2023-03-15T04:38:12.321Z,99177.19
2023-03-15T04:41:36.968Z,99187.53
2023-03-15T04:44:54.921Z,99203.41
2023-03-15T04:48:17.806Z,99205.94
2023-03-15T04:51:44.179Z,99228.44
2023-03-15T04:55:10.021Z,99207.66
2023-03-15T04:58:41.749Z,99217.84
2023-03-15T05:02:02.746Z,99233.44
2023-03-15T05:05:15.470Z,99239.63
2023-03-15T05:08:41.120Z,99246.47
2023-03-15T05:12:02.508Z,99243.72
2023-03-15T05:15:27.031Z,99255.91
2023-03-15T05:19:08.626Z,99257.19
2023-03-15T05:22:19.975Z,99248.25
2023-03-15T05:25:43.752Z,99243.50
2023-03-15T05:29:00.437Z,99237.78
2023-03-15T05:32:26.691Z,99235.19
2023-03-15T05:35:49.258Z,99237.13
2023-03-15T05:39:16.666Z,99240.13
2023-03-15T05:42:39.645Z,99265.09
2023-03-15T05:46:01.554Z,99264.16
2023-03-15T05:49:22.952Z,99265.56
2023-03-15T05:52:42.709Z,99255.81
2023-03-15T05:55:56.399Z,99256.34
2023-03-15T05:59:05.296Z,99243.81
2023-03-15T06:02:25.216Z,99259.09
2023-03-15T06:05:43.547Z,99236.31
2023-03-15T06:08:51.298Z,99263.47
2023-03-15T06:11:54.216Z,99284.63
2023-03-15T06:14:57.368Z,99260.91
2023-03-15T06:17:59.893Z,99279.94
2023-03-15T06:21:02.826Z,99289.06
2023-03-15T06:24:06.600Z,99286.66
2023-03-15T06:27:10.567Z,99300.38
2023-03-15T06:30:15.957Z,99300.97
2023-03-15T06:33:21.597Z,99289.38
2023-03-15T06:36:25.018Z,99292.19
2023-03-15T06:39:27.555Z,99306.31
2023-03-15T06:42:30.032Z,99314.66
2023-03-15T06:45:33.728Z,99298.75
2023-03-15T06:48:36.992Z,99317.00
2023-03-15T06:51:40.219Z,99324.50
2023-03-15T06:54:45.165Z,99310.91
2023-03-15T06:57:47.579Z,99325.75
2023-03-15T07:00:52.542Z,99331.75
2023-03-15T07:03:55.059Z,99328.59
2023-03-15T07:06:57.670Z,99327.72
2023-03-15T07:10:00.835Z,99325.28
2023-03-15T07:13:05.173Z,99333.66
2023-03-15T07:16:07.706Z,99347.63
2023-03-15T07:19:10.376Z,99369.97
2023-03-15T07:22:12.803Z,99367.22
2023-03-15T07:25:15.485Z,99349.88
2023-03-15T07:28:18.030Z,99343.22
2023-03-15T07:31:20.525Z,99348.34
2023-03-15T07:34:22.996Z,99351.16
2023-03-15T07:37:25.438Z,99367.41
2023-03-15T07:40:28.857Z,99377.06
2023-03-15T07:43:31.691Z,99377.78
2023-03-15T07:46:55.030Z,99387.91
2023-03-15T07:49:57.935Z,99376.38
2023-03-15T07:53:01.146Z,99388.66
2023-03-15T07:56:04.290Z,99371.72
2023-03-15T07:59:06.967Z,99367.16
2023-03-15T08:02:14.539Z,99388.03
2023-03-15T08:05:20.076Z,99391.72
2023-03-15T08:08:22.700Z,99389.00
2023-03-15T08:11:25.250Z,99399.56
2023-03-15T08:14:28.409Z,99393.63
2023-03-15T08:17:30.832Z,99392.09
2023-03-15T08:20:36.753Z,99406.31
2023-03-15T08:23:39.389Z,99400.91
2023-03-15T08:26:43.323Z,99408.28
2023-03-15T08:29:45.901Z,99408.13
2023-03-15T08:32:50.162Z,99411.28
2023-03-15T08:35:56.424Z,99415.06
2023-03-15T08:38:58.940Z,99417.94
2023-03-15T08:42:01.629Z,99439.06
2023-03-15T08:45:07.119Z,99439.66
2023-03-15T08:48:09.746Z,99442.22
2023-03-15T08:51:13.873Z,99444.97
2023-03-15T08:54:16.492Z,99472.44
2023-03-15T08:57:18.930Z,99458.59
2023-03-15T09:00:23.262Z,99475.66
2023-03-15T09:03:25.791Z,99470.47
2023-03-15T09:06:31.525Z,99490.44
2023-03-15T09:09:34.560Z,99502.81
2023-03-15T09:12:37.074Z,99504.75
2023-03-15T09:15:39.481Z,99500.81
2023-03-15T09:18:44.090Z,99525.69
2023-03-15T09:21:47.221Z,99519.16
2023-03-15T09:24:50.487Z,99522.72
2023-03-15T09:27:54.358Z,99525.09
2023-03-15T09:30:59.535Z,99535.22
2023-03-15T09:34:03.404Z,99541.47
2023-03-15T09:37:06.049Z,99545.97
2023-03-15T09:40:15.580Z,99546.50
2023-03-15T09:43:36.990Z,99569.34
2023-03-15T09:46:45.042Z,99550.22
2023-03-15T09:50:07.824Z,99568.66
2023-03-15T09:53:27.592Z,99571.97
2023-03-15T09:56:38.388Z,99577.75
2023-03-15T09:59:46.412Z,99573.59
2023-03-15T10:03:01.696Z,99557.41
2023-03-15T10:06:30.016Z,99580.81
2023-03-15T10:09:33.806Z,99581.75
2023-03-15T10:12:42.133Z,99582.53
2023-03-15T10:15:57.634Z,99584.00
2023-03-15T10:19:25.653Z,99583.28
2023-03-15T10:22:50.189Z,99574.25
2023-03-15T10:25:54.399Z,99586.47
2023-03-15T10:28:57.374Z,99585.09
2023-03-15T10:32:00.529Z,99592.16
2023-03-15T10:35:13.573Z,99588.38
2023-03-15T10:38:21.758Z,99600.25
2023-03-15T10:41:37.476Z,99587.75
2023-03-15T10:44:40.293Z,99588.69
2023-03-15T10:47:50.404Z,99598.75
2023-03-15T10:51:01.415Z,99607.38
2023-03-15T10:54:22.211Z,99605.06
2023-03-15T10:57:28.329Z,99607.69
2023-03-15T11:00:37.960Z,99601.53
2023-03-15T11:03:41.784Z,99603.00
2023-03-15T11:06:46.284Z,99607.19
2023-03-15T11:09:54.598Z,99599.09
2023-03-15T11:13:13.726Z,99611.72
2023-03-15T11:16:16.153Z,99610.22
2023-03-15T11:19:25.671Z,99608.13
2023-03-15T11:22:28.137Z,99604.31
2023-03-15T11:25:31.840Z,99627.34
2023-03-15T11:28:37.733Z,99619.97
2023-03-15T11:31:40.917Z,99623.09
2023-03-15T11:35:06.650Z,99635.16
2023-03-15T11:38:17.338Z,99616.09
2023-03-15T11:41:35.738Z,99640.50
2023-03-15T11:44:46.944Z,99622.31
2023-03-15T11:48:01.754Z,99616.13
2023-03-15T11:51:05.871Z,99622.38
2023-03-15T11:54:11.362Z,99633.03
2023-03-15T11:57:29.033Z,99638.34
2023-03-15T12:00:36.647Z,99642.06
2023-03-15T12:03:44.362Z,99638.59
2023-03-15T12:06:46.860Z,99654.75
2023-03-15T12:09:52.721Z,99651.78
2023-03-15T12:13:07.738Z,99642.09
2023-03-15T12:16:12.089Z,99642.50
2023-03-15T12:19:17.947Z,99643.91
2023-03-15T12:22:20.797Z,99644.75
2023-03-15T12:25:45.523Z,99640.91
2023-03-15T12:28:58.823Z,99659.19
2023-03-15T12:32:04.471Z,99665.06
2023-03-15T12:35:17.534Z,99660.97
2023-03-15T12:38:23.766Z,99656.56
2023-03-15T12:41:36.698Z,99668.56
2023-03-15T12:44:41.959Z,99667.34
2023-03-15T12:47:44.338Z,99659.59
2023-03-15T12:50:48.167Z,99669.25
2023-03-15T12:53:54.640Z,99661.41
2023-03-15T12:57:02.699Z,99675.22
2023-03-15T13:00:15.764Z,99666.31
2023-03-15T13:03:22.187Z,99684.72
2023-03-15T13:06:49.207Z,99695.13
2023-03-15T13:10:24.063Z,99680.09
2023-03-15T13:13:38.134Z,99676.91
2023-03-15T13:16:51.088Z,99667.03
2023-03-15T13:20:11.218Z,99689.69
2023-03-15T13:23:26.262Z,99690.78
2023-03-15T13:26:35.684Z,99691.44
2023-03-15T13:29:38.280Z,99677.81
2023-03-15T13:32:44.446Z,99706.31
2023-03-15T13:35:54.154Z,99707.19
2023-03-15T13:38:57.703Z,99711.75
2023-03-15T13:42:17.905Z,99715.41
2023-03-15T13:45:23.239Z,99717.00
2023-03-15T13:48:34.749Z,99721.13
2023-03-15T13:51:39.249Z,99726.22
2023-03-15T13:54:44.408Z,99732.00
2023-03-15T13:57:48.325Z,99734.47
2023-03-15T14:01:04.487Z,99736.72
2023-03-15T14:04:12.976Z,99733.59
2023-03-15T14:07:35.310Z,99741.53
2023-03-15T14:10:40.008Z,99755.66
2023-03-15T14:13:52.578Z,99748.59
2023-03-15T14:17:05.239Z,99756.38
2023-03-15T14:20:15.751Z,99762.16
2023-03-15T14:23:22.749Z,99750.94
2023-03-15T14:26:29.913Z,99755.84
2023-03-15T14:29:37.506Z,99772.53
2023-03-15T14:32:52.828Z,99766.88
2023-03-15T14:36:00.037Z,99784.66
2023-03-15T14:39:02.805Z,99785.53
2023-03-15T14:42:07.874Z,99782.19
2023-03-15T14:45:10.660Z,99789.78
2023-03-15T14:48:28.721Z,99777.47
2023-03-15T14:51:33.182Z,99792.78
2023-03-15T14:54:35.682Z,99792.28
2023-03-15T14:57:38.516Z,99795.44
2023-03-15T15:01:00.086Z,99792.94
2023-03-15T15:04:04.086Z,99812.72
2023-03-15T15:07:06.547Z,99820.22
2023-03-15T15:10:09.596Z,99820.66
2023-03-15T15:13:24.164Z,99828.03
2023-03-15T15:16:27.121Z,99822.50
2023-03-15T15:19:29.890Z,99836.47
2023-03-15T15:22:32.564Z,99853.28
2023-03-15T15:25:35.680Z,99845.91
2023-03-15T15:28:38.183Z,99863.00
2023-03-15T15:31:41.703Z,99867.78
2023-03-15T15:34:44.670Z,99864.66
2023-03-15T15:37:50.082Z,99859.31
2023-03-15T15:40:53.647Z,99873.44
2023-03-15T15:43:57.017Z,99885.22
2023-03-15T15:47:01.382Z,99901.31
2023-03-15T15:50:04.263Z,99903.53
2023-03-15T15:53:07.624Z,99892.97
2023-03-15T15:56:14.452Z,99906.31
2023-03-15T15:59:17.731Z,99896.97
2023-03-15T16:02:23.102Z,99907.75
2023-03-15T16:05:28.830Z,99928.84
2023-03-15T16:08:37.778Z,99923.47
2023-03-15T16:11:40.986Z,99917.44
2023-03-15T16:14:44.041Z,99926.38
2023-03-15T16:17:47.014Z,99933.94
2023-03-15T16:20:51.616Z,99935.53
2023-03-15T16:24:02.054Z,99952.44
2023-03-15T16:27:07.224Z,99956.19
2023-03-15T16:30:23.352Z,99954.16
2023-03-15T16:33:27.177Z,99942.19
2023-03-15T16:36:34.459Z,99937.19
2023-03-15T16:39:38.191Z,99971.44
2023-03-15T16:42:41.943Z,99977.75
2023-03-15T16:45:45.259Z,99985.88
2023-03-15T16:48:47.836Z,99977.81
2023-03-15T16:51:53.403Z,99994.94
2023-03-15T16:54:56.327Z,99981.84
2023-03-15T16:58:02.775Z,100009.16
2023-03-15T17:01:08.325Z,100022.75
2023-03-15T17:04:11.145Z,100019.34
2023-03-15T17:07:14.862Z,100020.88
2023-03-15T17:10:23.325Z,100027.19
2023-03-15T17:13:29.886Z,100023.31
2023-03-15T17:16:32.847Z,100023.81
2023-03-15T17:19:35.327Z,100021.16
2023-03-15T17:22:38.950Z,100035.59
2023-03-15T17:25:41.525Z,100023.63
2023-03-15T17:28:46.013Z,100030.28
2023-03-15T17:31:49.070Z,100036.63
2023-03-15T17:34:52.380Z,100046.53
2023-03-15T17:37:55.745Z,100046.91
2023-03-15T17:41:00.010Z,100033.31
2023-03-15T17:44:03.811Z,100061.53
2023-03-15T17:47:12.914Z,100073.78
2023-03-15T17:50:16.254Z,100075.94
2023-03-15T17:53:21.298Z,100088.75
2023-03-15T17:56:24.416Z,100098.53
2023-03-15T17:59:27.287Z,100113.75
2023-03-15T18:02:32.240Z,100104.59
2023-03-15T18:05:36.564Z,100108.94
2023-03-15T18:08:39.334Z,100099.81
2023-03-15T18:11:43.622Z,100119.13
2023-03-15T18:14:47.486Z,100134.06
2023-03-15T18:17:50.930Z,100133.44
2023-03-15T18:20:54.045Z,100125.88
2023-03-15T18:23:58.411Z,100129.00
2023-03-15T18:27:02.044Z,100139.31
2023-03-15T18:30:06.773Z,100146.63
2023-03-15T18:33:11.150Z,100137.53
2023-03-15T18:36:13.738Z,100153.63
2023-03-15T18:39:17.253Z,100136.97
2023-03-15T18:42:20.112Z,100162.78
2023-03-15T18:45:26.945Z,100161.03
2023-03-15T18:48:40.136Z,100164.63
2023-03-15T18:51:43.837Z,100147.66
2023-03-15T18:54:46.765Z,100171.53
2023-03-15T18:57:52.096Z,100173.00
2023-03-15T19:00:55.709Z,100182.50
2023-03-15T19:03:58.352Z,100187.22
2023-03-15T19:07:01.195Z,100149.91
2023-03-15T19:10:06.555Z,100184.28
2023-03-15T19:13:09.654Z,100191.25
2023-03-15T19:16:12.910Z,100190.16
2023-03-15T19:19:35.612Z,100185.13
2023-03-15T19:22:39.637Z,100186.44
2023-03-15T19:25:42.104Z,100201.72
2023-03-15T19:28:45.167Z,100203.06
2023-03-15T19:31:47.874Z,100183.97
2023-03-15T19:34:50.933Z,100210.53
2023-03-15T19:37:53.792Z,100197.75
2023-03-15T19:40:58.640Z,100213.34
2023-03-15T19:44:01.532Z,100215.13
2023-03-15T19:47:05.303Z,100223.41
2023-03-15T19:50:11.052Z,100232.81
2023-03-15T19:53:13.877Z,100217.06
2023-03-15T19:56:18.433Z,100241.19
2023-03-15T19:59:21.434Z,100253.25
2023-03-15T20:02:24.533Z,100249.22
2023-03-15T20:05:27.923Z,100253.09
2023-03-15T20:08:30.733Z,100259.25
2023-03-15T20:11:34.750Z,100249.13
2023-03-15T20:14:38.429Z,100253.47
2023-03-15T20:17:41.611Z,100272.75
2023-03-15T20:20:44.461Z,100272.44
2023-03-15T20:23:47.945Z,100279.47
2023-03-15T20:26:51.936Z,100269.66
2023-03-15T20:29:56.600Z,100261.09
2023-03-15T20:33:00.330Z,100265.75
2023-03-15T20:36:04.101Z,100270.41
2023-03-15T20:39:06.861Z,100280.66
2023-03-15T20:42:09.719Z,100288.03
2023-03-15T20:45:13.571Z,100273.41
2023-03-15T20:48:16.331Z,100278.84
2023-03-15T20:51:19.716Z,100283.84
2023-03-15T20:54:22.482Z,100268.88
2023-03-15T20:57:25.310Z,100267.75
2023-03-15T21:00:29.330Z,100279.31
2023-03-15T21:03:34.140Z,100283.88
2023-03-15T21:06:37.027Z,100293.81
2023-03-15T21:09:40.706Z,100272.19
2023-03-15T21:12:46.535Z,100285.53
2023-03-15T21:15:53.209Z,100301.13
2023-03-15T21:18:56.390Z,100303.72
2023-03-15T21:22:01.113Z,100298.56
2023-03-15T21:25:04.186Z,100299.81
2023-03-15T21:28:07.410Z,100294.31
2023-03-15T21:31:09.998Z,100283.13
2023-03-15T21:34:12.683Z,100292.75
2023-03-15T21:37:15.373Z,100270.56
2023-03-15T21:40:18.176Z,100277.03
2023-03-15T21:43:20.967Z,100291.16
2023-03-15T21:46:23.916Z,100281.38
2023-03-15T21:49:26.375Z,100274.00
2023-03-15T21:52:28.937Z,100298.28
2023-03-15T21:55:33.666Z,100295.06
2023-03-15T21:58:36.283Z,100303.63
2023-03-15T22:01:39.043Z,100302.63
2023-03-15T22:04:44.911Z,100295.06
2023-03-15T22:07:47.770Z,100303.09
2023-03-15T22:10:54.767Z,100307.91
2023-03-15T22:13:58.201Z,100307.31
2023-03-15T22:17:04.654Z,100300.44
2023-03-15T22:20:17.087Z,100307.66
2023-03-15T22:23:19.703Z,100290.84
2023-03-15T22:26:22.537Z,100315.59
2023-03-15T22:29:25.000Z,100311.88
2023-03-15T22:32:27.620Z,100305.63
2023-03-15T22:35:30.258Z,100294.88
2023-03-15T22:38:37.956Z,100285.91
2023-03-15T22:41:42.010Z,100321.09
2023-03-15T22:44:45.783Z,100306.66
2023-03-15T22:47:49.465Z,100319.03
2023-03-15T22:50:58.590Z,100328.84
2023-03-15T22:54:01.212Z,100324.22
2023-03-15T22:57:03.762Z,100326.13
2023-03-15T23:00:14.030Z,100316.50
2023-03-15T23:03:16.832Z,100320.16
2023-03-15T23:06:20.225Z,100322.72
2023-03-15T23:09:22.892Z,100321.31
2023-03-15T23:12:35.800Z,100310.53
2023-03-15T23:15:39.196Z,100329.34
2023-03-15T23:18:42.442Z,100339.81
2023-03-15T23:21:45.350Z,100341.25
2023-03-15T23:24:47.794Z,100336.44
2023-03-15T23:27:50.681Z,100340.28
2023-03-15T23:30:53.300Z,100346.88
2023-03-15T23:33:55.824Z,100346.91
2023-03-15T23:36:58.197Z,100360.53
2023-03-15T23:40:01.848Z,100369.06
2023-03-15T23:43:05.894Z,100360.22
2023-03-15T23:46:08.610Z,100366.97
2023-03-15T23:49:12.670Z,100345.44
2023-03-15T23:52:15.676Z,100360.69
2023-03-15T23:55:18.444Z,100355.56
2023-03-15T23:58:21.272Z,100375.78
